sensor_id;sensor_type;location;lat;lon;timestamp;P1;durP1;ratioP1;P2;durP2;ratioP2
8171;SDS011;4127;47.908;10.850;2022-12-07T00:01:19;8.00;;;7.20;;
8171;SDS011;4127;47.908;10.850;2022-12-07T00:03:47;8.10;;;7.30;;
8171;SDS011;4127;47.908;10.850;2022-12-07T00:06:16;7.70;;;6.90;;
8171;SDS011;4127;47.908;10.850;2022-12-07T00:08:44;8.30;;;7.47;;
8171;SDS011;4127;47.908;10.850;2022-12-07T00:11:12;8.30;;;7.40;;
8171;SDS011;4127;47.908;10.850;2022-12-07T00:13:43;7.93;;;7.13;;
8171;SDS011;4127;47.908;10.850;2022-12-07T00:16:12;9.20;;;8.30;;
8171;SDS011;4127;47.908;10.850;2022-12-07T00:18:44;8.63;;;7.57;;
8171;SDS011;4127;47.908;10.850;2022-12-07T00:23:39;8.90;;;8.00;;
8171;SDS011;4127;47.908;10.850;2022-12-07T00:26:18;8.53;;;7.70;;
8171;SDS011;4127;47.908;10.850;2022-12-07T00:28:48;8.80;;;7.90;;
8171;SDS011;4127;47.908;10.850;2022-12-07T00:31:18;7.83;;;7.13;;
8171;SDS011;4127;47.908;10.850;2022-12-07T00:33:47;8.37;;;7.57;;
8171;SDS011;4127;47.908;10.850;2022-12-07T00:36:16;8.53;;;7.60;;
8171;SDS011;4127;47.908;10.850;2022-12-07T00:38:51;8.40;;;7.50;;
8171;SDS011;4127;47.908;10.850;2022-12-07T00:41:19;8.43;;;7.47;;
8171;SDS011;4127;47.908;10.850;2022-12-07T00:43:47;8.13;;;7.33;;
8171;SDS011;4127;47.908;10.850;2022-12-07T00:46:15;8.47;;;7.57;;
8171;SDS011;4127;47.908;10.850;2022-12-07T00:48:43;8.73;;;7.80;;
8171;SDS011;4127;47.908;10.850;2022-12-07T00:51:10;8.43;;;7.60;;
8171;SDS011;4127;47.908;10.850;2022-12-07T00:53:38;8.07;;;7.27;;
8171;SDS011;4127;47.908;10.850;2022-12-07T00:56:07;8.03;;;7.23;;
8171;SDS011;4127;47.908;10.850;2022-12-07T00:58:38;8.53;;;7.63;;
8171;SDS011;4127;47.908;10.850;2022-12-07T01:01:06;8.93;;;7.37;;
8171;SDS011;4127;47.908;10.850;2022-12-07T01:03:34;9.40;;;8.40;;
8171;SDS011;4127;47.908;10.850;2022-12-07T01:06:01;8.53;;;7.73;;
8171;SDS011;4127;47.908;10.850;2022-12-07T01:08:29;9.50;;;8.53;;
8171;SDS011;4127;47.908;10.850;2022-12-07T01:11:03;9.70;;;8.70;;
8171;SDS011;4127;47.908;10.850;2022-12-07T01:13:32;9.40;;;8.20;;
8171;SDS011;4127;47.908;10.850;2022-12-07T01:16:00;8.87;;;7.87;;
8171;SDS011;4127;47.908;10.850;2022-12-07T01:18:30;9.10;;;8.20;;
8171;SDS011;4127;47.908;10.850;2022-12-07T01:20:59;8.90;;;8.10;;
8171;SDS011;4127;47.908;10.850;2022-12-07T01:23:27;9.63;;;8.33;;
8171;SDS011;4127;47.908;10.850;2022-12-07T01:25:56;9.97;;;8.97;;
8171;SDS011;4127;47.908;10.850;2022-12-07T01:28:24;9.30;;;8.40;;
8171;SDS011;4127;47.908;10.850;2022-12-07T01:30:55;10.27;;;9.27;;
8171;SDS011;4127;47.908;10.850;2022-12-07T01:33:27;10.73;;;9.63;;
8171;SDS011;4127;47.908;10.850;2022-12-07T01:36:00;12.87;;;10.60;;
8171;SDS011;4127;47.908;10.850;2022-12-07T01:38:31;13.07;;;10.37;;
8171;SDS011;4127;47.908;10.850;2022-12-07T01:40:59;12.37;;;10.20;;
8171;SDS011;4127;47.908;10.850;2022-12-07T01:43:27;12.80;;;10.43;;
8171;SDS011;4127;47.908;10.850;2022-12-07T01:45:55;11.50;;;10.20;;
8171;SDS011;4127;47.908;10.850;2022-12-07T01:48:27;12.23;;;10.20;;
8171;SDS011;4127;47.908;10.850;2022-12-07T14:38:58;14.60;;;12.15;;
8171;SDS011;4127;47.908;10.850;2022-12-07T14:41:26;16.07;;;13.40;;
8171;SDS011;4127;47.908;10.850;2022-12-07T14:44:12;13.23;;;11.47;;
8171;SDS011;4127;47.908;10.850;2022-12-07T14:46:50;10.47;;;9.37;;
8171;SDS011;4127;47.908;10.850;2022-12-07T14:49:37;11.60;;;10.40;;
8171;SDS011;4127;47.908;10.850;2022-12-07T14:52:04;12.37;;;10.97;;
8171;SDS011;4127;47.908;10.850;2022-12-07T14:54:52;11.47;;;10.27;;
8171;SDS011;4127;47.908;10.850;2022-12-07T14:57:19;15.80;;;13.73;;
8171;SDS011;4127;47.908;10.850;2022-12-07T14:59:46;16.20;;;13.87;;
8171;SDS011;4127;47.908;10.850;2022-12-07T15:02:13;16.80;;;14.07;;
8171;SDS011;4127;47.908;10.850;2022-12-07T15:04:41;14.60;;;13.00;;
8171;SDS011;4127;47.908;10.850;2022-12-07T15:07:20;15.27;;;13.27;;
8171;SDS011;4127;47.908;10.850;2022-12-07T15:09:48;19.50;;;17.40;;
8171;SDS011;4127;47.908;10.850;2022-12-07T15:12:15;21.37;;;18.27;;
8171;SDS011;4127;47.908;10.850;2022-12-07T15:14:41;19.07;;;16.13;;
8171;SDS011;4127;47.908;10.850;2022-12-07T15:17:09;19.87;;;16.87;;
8171;SDS011;4127;47.908;10.850;2022-12-07T15:19:53;17.37;;;15.20;;
8171;SDS011;4127;47.908;10.850;2022-12-07T15:22:19;14.90;;;12.80;;
8171;SDS011;4127;47.908;10.850;2022-12-07T15:24:46;12.53;;;11.00;;
8171;SDS011;4127;47.908;10.850;2022-12-07T15:27:13;13.67;;;12.30;;
8171;SDS011;4127;47.908;10.850;2022-12-07T15:29:40;15.57;;;14.13;;
8171;SDS011;4127;47.908;10.850;2022-12-07T15:32:06;15.63;;;13.90;;
8171;SDS011;4127;47.908;10.850;2022-12-07T15:34:33;10.10;;;9.03;;
8171;SDS011;4127;47.908;10.850;2022-12-07T15:37:05;9.70;;;8.70;;
8171;SDS011;4127;47.908;10.850;2022-12-07T15:39:33;13.40;;;11.77;;
8171;SDS011;4127;47.908;10.850;2022-12-07T15:42:00;12.60;;;9.87;;
8171;SDS011;4127;47.908;10.850;2022-12-07T15:44:27;10.57;;;9.47;;
8171;SDS011;4127;47.908;10.850;2022-12-07T15:47:12;10.10;;;9.10;;
8171;SDS011;4127;47.908;10.850;2022-12-07T15:49:39;10.03;;;9.03;;
8171;SDS011;4127;47.908;10.850;2022-12-07T15:52:05;8.77;;;7.97;;
8171;SDS011;4127;47.908;10.850;2022-12-07T15:54:32;10.07;;;8.57;;
8171;SDS011;4127;47.908;10.850;2022-12-07T15:56:59;11.30;;;9.50;;
8171;SDS011;4127;47.908;10.850;2022-12-07T15:59:26;9.90;;;8.87;;
8171;SDS011;4127;47.908;10.850;2022-12-07T16:01:54;9.43;;;8.53;;
8171;SDS011;4127;47.908;10.850;2022-12-07T16:04:21;10.93;;;9.73;;
8171;SDS011;4127;47.908;10.850;2022-12-07T16:06:48;13.50;;;11.50;;
8171;SDS011;4127;47.908;10.850;2022-12-07T16:09:17;12.07;;;10.60;;
8171;SDS011;4127;47.908;10.850;2022-12-07T16:11:44;9.77;;;8.60;;
8171;SDS011;4127;47.908;10.850;2022-12-07T16:14:11;8.70;;;7.87;;
8171;SDS011;4127;47.908;10.850;2022-12-07T16:16:38;10.17;;;9.03;;
8171;SDS011;4127;47.908;10.850;2022-12-07T16:19:06;10.50;;;9.40;;
8171;SDS011;4127;47.908;10.850;2022-12-07T16:21:34;10.17;;;9.17;;
8171;SDS011;4127;47.908;10.850;2022-12-07T16:24:01;9.80;;;8.70;;
8171;SDS011;4127;47.908;10.850;2022-12-07T16:26:28;10.23;;;9.13;;
8171;SDS011;4127;47.908;10.850;2022-12-07T16:28:55;14.63;;;10.63;;
8171;SDS011;4127;47.908;10.850;2022-12-07T16:31:23;13.23;;;11.43;;
8171;SDS011;4127;47.908;10.850;2022-12-07T16:33:52;23.57;;;17.00;;
8171;SDS011;4127;47.908;10.850;2022-12-07T16:36:20;20.60;;;15.90;;
8171;SDS011;4127;47.908;10.850;2022-12-07T16:39:08;13.43;;;11.40;;
8171;SDS011;4127;47.908;10.850;2022-12-07T16:41:35;13.60;;;11.07;;
8171;SDS011;4127;47.908;10.850;2022-12-07T16:44:06;36.30;;;19.00;;
8171;SDS011;4127;47.908;10.850;2022-12-07T16:46:35;68.93;;;31.97;;
8171;SDS011;4127;47.908;10.850;2022-12-07T16:49:02;51.70;;;28.07;;
8171;SDS011;4127;47.908;10.850;2022-12-07T16:51:30;24.50;;;17.23;;
8171;SDS011;4127;47.908;10.850;2022-12-07T16:53:57;14.70;;;11.70;;
8171;SDS011;4127;47.908;10.850;2022-12-07T16:56:24;17.00;;;13.43;;
8171;SDS011;4127;47.908;10.850;2022-12-07T16:58:52;30.30;;;20.27;;
8171;SDS011;4127;47.908;10.850;2022-12-07T17:01:20;21.13;;;15.30;;
8171;SDS011;4127;47.908;10.850;2022-12-07T17:03:49;16.07;;;13.10;;
8171;SDS011;4127;47.908;10.850;2022-12-07T17:06:17;24.93;;;18.40;;
8171;SDS011;4127;47.908;10.850;2022-12-07T17:08:50;32.23;;;23.60;;
8171;SDS011;4127;47.908;10.850;2022-12-07T17:11:24;27.70;;;20.30;;
8171;SDS011;4127;47.908;10.850;2022-12-07T17:13:53;22.13;;;17.00;;
8171;SDS011;4127;47.908;10.850;2022-12-07T17:16:38;27.23;;;21.27;;
8171;SDS011;4127;47.908;10.850;2022-12-07T17:19:06;43.97;;;28.30;;
8171;SDS011;4127;47.908;10.850;2022-12-07T17:21:34;34.53;;;24.47;;
8171;SDS011;4127;47.908;10.850;2022-12-07T17:24:02;30.63;;;25.07;;
8171;SDS011;4127;47.908;10.850;2022-12-07T17:26:31;28.43;;;22.43;;
8171;SDS011;4127;47.908;10.850;2022-12-07T17:29:01;28.73;;;22.07;;
8171;SDS011;4127;47.908;10.850;2022-12-07T17:31:33;27.80;;;21.67;;
8171;SDS011;4127;47.908;10.850;2022-12-07T17:34:00;17.70;;;14.23;;
8171;SDS011;4127;47.908;10.850;2022-12-07T17:36:28;13.67;;;11.47;;
8171;SDS011;4127;47.908;10.850;2022-12-07T17:38:57;14.13;;;12.23;;
8171;SDS011;4127;47.908;10.850;2022-12-07T17:41:24;14.97;;;12.90;;
8171;SDS011;4127;47.908;10.850;2022-12-07T17:44:15;18.93;;;15.67;;
8171;SDS011;4127;47.908;10.850;2022-12-07T17:46:44;15.33;;;12.53;;
8171;SDS011;4127;47.908;10.850;2022-12-07T17:49:12;12.47;;;10.80;;
8171;SDS011;4127;47.908;10.850;2022-12-07T17:51:39;10.60;;;9.40;;
8171;SDS011;4127;47.908;10.850;2022-12-07T17:54:24;10.43;;;9.33;;
8171;SDS011;4127;47.908;10.850;2022-12-07T17:56:51;12.43;;;10.80;;
8171;SDS011;4127;47.908;10.850;2022-12-07T17:59:18;12.60;;;10.43;;
8171;SDS011;4127;47.908;10.850;2022-12-07T18:01:45;15.10;;;13.50;;
8171;SDS011;4127;47.908;10.850;2022-12-07T18:04:12;11.53;;;10.13;;
8171;SDS011;4127;47.908;10.850;2022-12-07T18:06:39;10.63;;;8.70;;
8171;SDS011;4127;47.908;10.850;2022-12-07T18:09:06;8.87;;;7.97;;
8171;SDS011;4127;47.908;10.850;2022-12-07T18:11:33;9.30;;;8.33;;
8171;SDS011;4127;47.908;10.850;2022-12-07T18:14:00;10.13;;;9.13;;
8171;SDS011;4127;47.908;10.850;2022-12-07T18:16:28;11.90;;;9.63;;
8171;SDS011;4127;47.908;10.850;2022-12-07T18:18:59;10.63;;;9.53;;
8171;SDS011;4127;47.908;10.850;2022-12-07T18:21:28;13.43;;;12.00;;
8171;SDS011;4127;47.908;10.850;2022-12-07T18:23:56;12.63;;;11.33;;
8171;SDS011;4127;47.908;10.850;2022-12-07T18:26:27;12.77;;;11.47;;
8171;SDS011;4127;47.908;10.850;2022-12-07T18:28:57;13.20;;;11.80;;
8171;SDS011;4127;47.908;10.850;2022-12-07T18:31:24;13.73;;;10.97;;
8171;SDS011;4127;47.908;10.850;2022-12-07T18:33:51;11.43;;;10.20;;
8171;SDS011;4127;47.908;10.850;2022-12-07T18:36:21;10.77;;;9.57;;
8171;SDS011;4127;47.908;10.850;2022-12-07T18:38:49;13.23;;;11.70;;
8171;SDS011;4127;47.908;10.850;2022-12-07T18:41:16;14.30;;;11.97;;
8171;SDS011;4127;47.908;10.850;2022-12-07T18:43:44;13.13;;;11.07;;
8171;SDS011;4127;47.908;10.850;2022-12-07T18:46:11;11.17;;;9.93;;
8171;SDS011;4127;47.908;10.850;2022-12-07T18:48:40;19.67;;;16.23;;
8171;SDS011;4127;47.908;10.850;2022-12-07T18:51:07;17.87;;;15.40;;
8171;SDS011;4127;47.908;10.850;2022-12-07T18:53:36;15.37;;;13.30;;
8171;SDS011;4127;47.908;10.850;2022-12-07T18:56:07;14.13;;;12.43;;
8171;SDS011;4127;47.908;10.850;2022-12-07T18:58:39;11.80;;;9.93;;
8171;SDS011;4127;47.908;10.850;2022-12-07T19:01:29;9.70;;;8.70;;
8171;SDS011;4127;47.908;10.850;2022-12-07T19:03:57;11.23;;;10.03;;
8171;SDS011;4127;47.908;10.850;2022-12-07T19:06:25;12.90;;;10.73;;
8171;SDS011;4127;47.908;10.850;2022-12-07T19:08:54;14.03;;;11.90;;
8171;SDS011;4127;47.908;10.850;2022-12-07T19:11:25;17.20;;;13.63;;
8171;SDS011;4127;47.908;10.850;2022-12-07T19:14:35;16.77;;;12.33;;
8171;SDS011;4127;47.908;10.850;2022-12-07T19:17:10;14.87;;;11.80;;
8171;SDS011;4127;47.908;10.850;2022-12-07T19:19:39;11.90;;;10.60;;
8171;SDS011;4127;47.908;10.850;2022-12-07T19:22:11;15.50;;;12.57;;
8171;SDS011;4127;47.908;10.850;2022-12-07T19:24:40;16.80;;;13.53;;
8171;SDS011;4127;47.908;10.850;2022-12-07T19:27:09;13.50;;;11.37;;
8171;SDS011;4127;47.908;10.850;2022-12-07T19:29:36;25.43;;;18.53;;
8171;SDS011;4127;47.908;10.850;2022-12-07T19:32:03;30.80;;;23.03;;
8171;SDS011;4127;47.908;10.850;2022-12-07T19:34:31;26.23;;;20.13;;
8171;SDS011;4127;47.908;10.850;2022-12-07T19:36:57;19.63;;;15.80;;
8171;SDS011;4127;47.908;10.850;2022-12-07T19:39:25;17.17;;;13.23;;
8171;SDS011;4127;47.908;10.850;2022-12-07T19:41:51;11.67;;;10.37;;
8171;SDS011;4127;47.908;10.850;2022-12-07T19:44:19;11.80;;;10.57;;
8171;SDS011;4127;47.908;10.850;2022-12-07T19:46:50;13.83;;;12.23;;
8171;SDS011;4127;47.908;10.850;2022-12-07T19:49:28;15.43;;;12.50;;
8171;SDS011;4127;47.908;10.850;2022-12-07T19:51:57;28.93;;;19.83;;
8171;SDS011;4127;47.908;10.850;2022-12-07T19:54:26;21.63;;;16.10;;
8171;SDS011;4127;47.908;10.850;2022-12-07T19:56:54;22.10;;;16.47;;
8171;SDS011;4127;47.908;10.850;2022-12-07T19:59:23;16.27;;;12.93;;
8171;SDS011;4127;47.908;10.850;2022-12-07T20:01:51;12.60;;;10.67;;
8171;SDS011;4127;47.908;10.850;2022-12-07T20:04:20;12.10;;;10.23;;
8171;SDS011;4127;47.908;10.850;2022-12-07T20:06:49;13.57;;;11.00;;
8171;SDS011;4127;47.908;10.850;2022-12-07T20:09:18;11.00;;;9.77;;
8171;SDS011;4127;47.908;10.850;2022-12-07T20:11:45;9.90;;;8.87;;
8171;SDS011;4127;47.908;10.850;2022-12-07T20:14:30;11.73;;;9.70;;
8171;SDS011;4127;47.908;10.850;2022-12-07T20:16:57;10.63;;;9.20;;
8171;SDS011;4127;47.908;10.850;2022-12-07T20:19:24;12.47;;;10.50;;
8171;SDS011;4127;47.908;10.850;2022-12-07T20:21:51;13.30;;;10.67;;
8171;SDS011;4127;47.908;10.850;2022-12-07T20:24:19;14.83;;;12.47;;
8171;SDS011;4127;47.908;10.850;2022-12-07T20:26:48;17.20;;;12.80;;
8171;SDS011;4127;47.908;10.850;2022-12-07T20:29:17;18.87;;;12.93;;
8171;SDS011;4127;47.908;10.850;2022-12-07T20:31:46;15.97;;;11.73;;
8171;SDS011;4127;47.908;10.850;2022-12-07T20:34:14;14.47;;;10.93;;
8171;SDS011;4127;47.908;10.850;2022-12-07T20:36:41;14.63;;;11.03;;
8171;SDS011;4127;47.908;10.850;2022-12-07T20:39:08;13.20;;;11.20;;
8171;SDS011;4127;47.908;10.850;2022-12-07T20:41:36;11.90;;;10.37;;
8171;SDS011;4127;47.908;10.850;2022-12-07T20:44:22;13.53;;;11.13;;
8171;SDS011;4127;47.908;10.850;2022-12-07T20:46:49;11.57;;;10.03;;
8171;SDS011;4127;47.908;10.850;2022-12-07T20:49:16;10.43;;;9.33;;
8171;SDS011;4127;47.908;10.850;2022-12-07T20:51:43;13.70;;;12.23;;
8171;SDS011;4127;47.908;10.850;2022-12-07T20:54:11;13.70;;;11.33;;
8171;SDS011;4127;47.908;10.850;2022-12-07T20:56:38;12.50;;;11.20;;
8171;SDS011;4127;47.908;10.850;2022-12-07T20:59:06;12.83;;;10.57;;
8171;SDS011;4127;47.908;10.850;2022-12-07T21:01:36;13.33;;;10.10;;
8171;SDS011;4127;47.908;10.850;2022-12-07T21:04:03;12.37;;;10.73;;
8171;SDS011;4127;47.908;10.850;2022-12-07T21:06:31;13.70;;;10.57;;
8171;SDS011;4127;47.908;10.850;2022-12-07T21:08:58;14.73;;;11.77;;
8171;SDS011;4127;47.908;10.850;2022-12-07T21:11:26;14.00;;;10.77;;
8171;SDS011;4127;47.908;10.850;2022-12-07T21:13:54;15.33;;;12.30;;
8171;SDS011;4127;47.908;10.850;2022-12-07T21:16:21;16.63;;;12.70;;
8171;SDS011;4127;47.908;10.850;2022-12-07T21:18:54;17.00;;;12.37;;
8171;SDS011;4127;47.908;10.850;2022-12-07T21:21:22;12.20;;;10.23;;
8171;SDS011;4127;47.908;10.850;2022-12-07T21:23:50;14.20;;;11.30;;
8171;SDS011;4127;47.908;10.850;2022-12-07T21:26:25;17.73;;;12.77;;
8171;SDS011;4127;47.908;10.850;2022-12-07T21:28:53;17.63;;;12.53;;
8171;SDS011;4127;47.908;10.850;2022-12-07T21:31:20;13.40;;;10.63;;
8171;SDS011;4127;47.908;10.850;2022-12-07T21:33:47;15.90;;;11.80;;
8171;SDS011;4127;47.908;10.850;2022-12-07T21:36:16;15.80;;;11.77;;
8171;SDS011;4127;47.908;10.850;2022-12-07T21:38:45;14.17;;;10.63;;
8171;SDS011;4127;47.908;10.850;2022-12-07T21:41:22;14.87;;;11.13;;
8171;SDS011;4127;47.908;10.850;2022-12-07T21:43:51;19.47;;;12.67;;
8171;SDS011;4127;47.908;10.850;2022-12-07T21:46:19;18.30;;;12.67;;
8171;SDS011;4127;47.908;10.850;2022-12-07T21:48:50;18.50;;;13.53;;
8171;SDS011;4127;47.908;10.850;2022-12-07T21:51:19;15.30;;;12.03;;
8171;SDS011;4127;47.908;10.850;2022-12-07T21:53:47;15.60;;;11.60;;
8171;SDS011;4127;47.908;10.850;2022-12-07T21:56:18;15.63;;;11.60;;
8171;SDS011;4127;47.908;10.850;2022-12-07T21:58:47;12.13;;;9.97;;
8171;SDS011;4127;47.908;10.850;2022-12-07T22:03:46;10.53;;;9.43;;
8171;SDS011;4127;47.908;10.850;2022-12-07T22:06:15;10.20;;;8.90;;
8171;SDS011;4127;47.908;10.850;2022-12-07T22:08:44;10.37;;;9.23;;
8171;SDS011;4127;47.908;10.850;2022-12-07T22:11:11;10.20;;;9.10;;
8171;SDS011;4127;47.908;10.850;2022-12-07T22:13:39;10.60;;;9.33;;
8171;SDS011;4127;47.908;10.850;2022-12-07T22:16:29;10.87;;;9.00;;
8171;SDS011;4127;47.908;10.850;2022-12-07T22:18:56;10.77;;;9.30;;
8171;SDS011;4127;47.908;10.850;2022-12-07T22:21:23;11.73;;;9.60;;
8171;SDS011;4127;47.908;10.850;2022-12-07T22:23:50;12.43;;;10.53;;
8171;SDS011;4127;47.908;10.850;2022-12-07T22:26:18;10.63;;;9.53;;
8171;SDS011;4127;47.908;10.850;2022-12-07T22:28:49;11.87;;;10.03;;
8171;SDS011;4127;47.908;10.850;2022-12-07T22:31:17;10.53;;;8.97;;
8171;SDS011;4127;47.908;10.850;2022-12-07T22:33:45;10.37;;;9.23;;
8171;SDS011;4127;47.908;10.850;2022-12-07T22:36:12;10.90;;;9.40;;
8171;SDS011;4127;47.908;10.850;2022-12-07T22:38:39;11.23;;;9.77;;
8171;SDS011;4127;47.908;10.850;2022-12-07T22:41:08;10.10;;;8.77;;
8171;SDS011;4127;47.908;10.850;2022-12-07T22:43:55;10.00;;;8.93;;
8171;SDS011;4127;47.908;10.850;2022-12-07T22:46:22;10.60;;;9.00;;
8171;SDS011;4127;47.908;10.850;2022-12-07T22:48:50;11.63;;;10.03;;
8171;SDS011;4127;47.908;10.850;2022-12-07T22:53:51;11.00;;;9.47;;
8171;SDS011;4127;47.908;10.850;2022-12-07T22:56:19;10.40;;;9.30;;
8171;SDS011;4127;47.908;10.850;2022-12-07T22:58:46;14.27;;;11.27;;
8171;SDS011;4127;47.908;10.850;2022-12-07T23:01:14;16.63;;;13.03;;
8171;SDS011;4127;47.908;10.850;2022-12-07T23:03:42;12.30;;;10.80;;
8171;SDS011;4127;47.908;10.850;2022-12-07T23:06:14;11.83;;;9.70;;
8171;SDS011;4127;47.908;10.850;2022-12-07T23:08:42;10.97;;;9.77;;
8171;SDS011;4127;47.908;10.850;2022-12-07T23:11:10;13.37;;;10.73;;
8171;SDS011;4127;47.908;10.850;2022-12-07T23:14:03;17.63;;;12.80;;
8171;SDS011;4127;47.908;10.850;2022-12-07T23:16:34;14.40;;;11.63;;
8171;SDS011;4127;47.908;10.850;2022-12-07T23:19:01;13.07;;;10.43;;
8171;SDS011;4127;47.908;10.850;2022-12-07T23:21:28;10.93;;;9.60;;
8171;SDS011;4127;47.908;10.850;2022-12-07T23:23:54;11.67;;;9.73;;
8171;SDS011;4127;47.908;10.850;2022-12-07T23:26:21;11.67;;;10.17;;
8171;SDS011;4127;47.908;10.850;2022-12-07T23:28:48;12.47;;;10.47;;
8171;SDS011;4127;47.908;10.850;2022-12-07T23:31:15;12.30;;;10.60;;
8171;SDS011;4127;47.908;10.850;2022-12-07T23:33:43;11.13;;;9.87;;
8171;SDS011;4127;47.908;10.850;2022-12-07T23:36:13;10.70;;;9.60;;
8171;SDS011;4127;47.908;10.850;2022-12-07T23:38:42;10.70;;;9.50;;
8171;SDS011;4127;47.908;10.850;2022-12-07T23:41:11;11.23;;;9.67;;
8171;SDS011;4127;47.908;10.850;2022-12-07T23:43:39;12.23;;;9.80;;
8171;SDS011;4127;47.908;10.850;2022-12-07T23:46:10;11.57;;;10.03;;
8171;SDS011;4127;47.908;10.850;2022-12-07T23:48:41;11.80;;;9.80;;
8171;SDS011;4127;47.908;10.850;2022-12-07T23:51:08;17.13;;;11.87;;
8171;SDS011;4127;47.908;10.850;2022-12-07T23:53:38;16.93;;;12.60;;
8171;SDS011;4127;47.908;10.850;2022-12-07T23:56:09;12.90;;;10.90;;
8171;SDS011;4127;47.908;10.850;2022-12-07T23:58:38;19.97;;;15.83;;
